createdAt,value
2022-12-18T00:02:02.881Z,101353.97
2022-12-18T00:04:34.088Z,101357.34
2022-12-18T00:07:06.504Z,101374.69
2022-12-18T00:09:40.286Z,101382.91
2022-12-18T00:14:47.223Z,101380.72
2022-12-18T00:17:18.674Z,101381.06
2022-12-18T00:19:47.998Z,101378.91
2022-12-18T00:22:19.815Z,101377.19
2022-12-18T00:24:48.056Z,101382.25
2022-12-18T00:27:17.422Z,101380.16
2022-12-18T00:29:46.062Z,101378.53
2022-12-18T00:32:15.206Z,101368.41
2022-12-18T00:34:50.943Z,101373.47
2022-12-18T00:37:20.389Z,101374.16
2022-12-18T00:39:50.770Z,101385.25
2022-12-18T00:42:38.470Z,101378.03
2022-12-18T00:45:12.678Z,101391.81
2022-12-18T00:47:41.360Z,101389.78
2022-12-18T00:50:12.495Z,101392.81
2022-12-18T00:52:41.059Z,101399.16
2022-12-18T00:55:12.807Z,101395.38
2022-12-18T00:57:42.385Z,101403.09
2022-12-18T01:00:15.165Z,101407.31
2022-12-18T01:02:49.160Z,101419.56
2022-12-18T01:05:18.614Z,101415.53
2022-12-18T01:07:47.020Z,101423.28
2022-12-18T01:10:15.273Z,101431.69
2022-12-18T01:12:44.798Z,101423.66
2022-12-18T01:15:14.843Z,101419.41
2022-12-18T01:17:49.576Z,101425.63
2022-12-18T01:20:19.025Z,101425.34
2022-12-18T01:22:48.591Z,101429.03
2022-12-18T01:25:25.785Z,101426.34
2022-12-18T01:27:55.377Z,101419.94
2022-12-18T01:30:23.986Z,101427.34
2022-12-18T01:32:54.553Z,101429.19
2022-12-18T01:35:26.140Z,101425.34
2022-12-18T01:38:00.649Z,101427.03
2022-12-18T01:40:29.230Z,101432.75
2022-12-18T01:42:58.326Z,101444.84
2022-12-18T01:45:33.050Z,101436.13
2022-12-18T01:48:05.038Z,101442.53
2022-12-18T01:50:44.692Z,101437.81
2022-12-18T01:53:23.478Z,101434.78
2022-12-18T01:55:58.710Z,101438.47
2022-12-18T01:59:04.357Z,101449.28
2022-12-18T02:01:34.530Z,101458.00
2022-12-18T02:04:26.591Z,101460.16
2022-12-18T02:07:12.610Z,101465.03
2022-12-18T02:10:07.007Z,101469.09
2022-12-18T02:12:57.281Z,101473.53
2022-12-18T02:15:40.087Z,101491.69
2022-12-18T02:18:22.662Z,101488.97
2022-12-18T02:21:21.146Z,101497.53
2022-12-18T02:24:26.615Z,101503.84
2022-12-18T02:26:59.619Z,101515.81
2022-12-18T02:29:38.768Z,101513.47
2022-12-18T02:32:13.381Z,101529.34
2022-12-18T02:34:45.841Z,101534.81
2022-12-18T02:37:17.989Z,101546.47
2022-12-18T02:39:50.493Z,101543.00
2022-12-18T02:42:20.159Z,101558.25
2022-12-18T02:44:52.067Z,101565.72
2022-12-18T02:47:24.106Z,101560.00
2022-12-18T02:50:30.898Z,101566.22
2022-12-18T02:53:24.702Z,101564.50
2022-12-18T02:56:22.718Z,101572.13
2022-12-18T02:59:14.673Z,101576.50
2022-12-18T03:01:58.421Z,101584.53
2022-12-18T03:04:56.067Z,101586.28
2022-12-18T03:07:36.738Z,101596.56
2022-12-18T03:10:14.769Z,101611.44
2022-12-18T03:13:17.112Z,101620.53
2022-12-18T03:15:57.707Z,101626.75
2022-12-18T03:18:42.788Z,101625.41
2022-12-18T03:21:14.646Z,101631.53
2022-12-18T03:23:49.023Z,101643.91
2022-12-18T03:26:24.446Z,101648.47
2022-12-18T03:29:04.695Z,101656.50
2022-12-18T03:31:39.177Z,101674.31
2022-12-18T03:34:16.199Z,101669.78
2022-12-18T03:36:45.370Z,101681.88
2022-12-18T03:39:17.124Z,101677.09
2022-12-18T03:42:03.008Z,101677.09
2022-12-18T03:45:26.899Z,101685.13
2022-12-18T03:48:03.977Z,101693.16
2022-12-18T03:50:59.058Z,101699.78
2022-12-18T03:53:52.127Z,101701.00
2022-12-18T03:56:25.362Z,101697.94
2022-12-18T03:58:58.999Z,101704.28
2022-12-18T04:01:34.154Z,101706.34
2022-12-18T04:04:06.617Z,101706.22
2022-12-18T04:06:46.943Z,101705.16
2022-12-18T04:09:19.034Z,101715.09
2022-12-18T04:11:53.291Z,101721.38
2022-12-18T04:14:22.276Z,101729.28
2022-12-18T04:16:52.079Z,101720.63
2022-12-18T04:19:22.240Z,101732.53
2022-12-18T04:21:52.030Z,101732.69
2022-12-18T04:24:22.905Z,101735.53
2022-12-18T04:26:59.620Z,101738.25
2022-12-18T04:29:28.498Z,101748.25
2022-12-18T04:31:57.399Z,101742.53
2022-12-18T04:34:34.260Z,101750.31
2022-12-18T04:37:13.003Z,101763.84
2022-12-18T04:39:44.078Z,101765.63
2022-12-18T04:42:23.738Z,101763.59
2022-12-18T04:44:56.321Z,101779.88
2022-12-18T04:47:34.291Z,101791.56
2022-12-18T04:50:06.625Z,101791.34
2022-12-18T04:52:36.169Z,101793.59
2022-12-18T04:55:05.464Z,101797.16
2022-12-18T04:57:35.064Z,101791.69
2022-12-18T05:00:08.024Z,101801.84
2022-12-18T05:02:36.106Z,101803.47
2022-12-18T05:05:07.172Z,101823.50
2022-12-18T05:07:37.050Z,101816.47
2022-12-18T05:10:09.295Z,101817.91
2022-12-18T05:13:01.212Z,101829.47
2022-12-18T05:15:34.287Z,101828.38
2022-12-18T05:18:07.468Z,101830.75
2022-12-18T05:20:36.968Z,101837.09
2022-12-18T05:23:07.961Z,101831.47
2022-12-18T05:25:36.462Z,101834.81
2022-12-18T05:28:05.788Z,101842.03
2022-12-18T05:30:34.040Z,101848.72
2022-12-18T05:33:03.853Z,101864.88
2022-12-18T05:35:37.707Z,101865.03
2022-12-18T05:38:12.150Z,101874.59
2022-12-18T05:40:45.297Z,101888.44
2022-12-18T05:43:20.803Z,101891.41
2022-12-18T05:45:51.029Z,101891.06
2022-12-18T05:48:25.390Z,101903.66
2022-12-18T05:50:54.899Z,101911.44
2022-12-18T05:53:26.134Z,101906.59
2022-12-18T05:55:56.181Z,101909.59
2022-12-18T05:58:25.209Z,101920.19
2022-12-18T06:00:54.093Z,101927.97
2022-12-18T06:03:24.029Z,101925.31
2022-12-18T06:05:54.904Z,101926.00
2022-12-18T06:08:24.972Z,101932.81
2022-12-18T06:10:54.468Z,101939.59
2022-12-18T06:13:23.187Z,101942.88
2022-12-18T06:15:54.165Z,101945.56
2022-12-18T06:18:26.881Z,101946.28
2022-12-18T06:21:00.418Z,101955.13
2022-12-18T06:23:28.595Z,101966.94
2022-12-18T06:25:57.479Z,101972.38
2022-12-18T06:28:26.297Z,101983.78
2022-12-18T06:30:56.398Z,101987.44
2022-12-18T06:33:31.300Z,101988.41
2022-12-18T06:36:07.227Z,101990.13
2022-12-18T06:38:42.013Z,101996.78
2022-12-18T06:41:24.752Z,101990.34
2022-12-18T06:43:59.382Z,102006.75
2022-12-18T06:46:30.998Z,102008.81
2022-12-18T06:49:00.495Z,102001.53
2022-12-18T06:51:30.196Z,102008.31
2022-12-18T06:53:59.789Z,102012.69
2022-12-18T06:56:28.710Z,102016.09
2022-12-18T06:58:57.128Z,102017.28
2022-12-18T07:01:26.258Z,102020.19
2022-12-18T07:03:58.705Z,102025.06
2022-12-18T07:06:28.640Z,102019.50
2022-12-18T07:08:59.086Z,102028.19
2022-12-18T07:11:29.826Z,102027.22
2022-12-18T07:14:01.294Z,102023.13
2022-12-18T07:16:30.198Z,102026.75
2022-12-18T07:19:02.598Z,102028.94
2022-12-18T07:21:34.102Z,102032.81
2022-12-18T07:24:06.380Z,102035.22
2022-12-18T07:26:40.141Z,102039.06
2022-12-18T07:29:09.412Z,102048.09
2022-12-18T07:31:39.706Z,102045.75
2022-12-18T07:34:13.232Z,102048.22
2022-12-18T07:36:44.494Z,102068.72
2022-12-18T07:39:22.858Z,102074.81
2022-12-18T07:42:11.611Z,102071.06
2022-12-18T07:44:39.701Z,102073.72
2022-12-18T07:47:12.000Z,102086.81
2022-12-18T07:49:43.481Z,102088.53
2022-12-18T07:52:20.258Z,102092.38
2022-12-18T07:54:58.336Z,102106.22
2022-12-18T07:57:49.412Z,102097.34
2022-12-18T08:00:17.690Z,102108.97
2022-12-18T08:02:50.742Z,102099.28
2022-12-18T08:05:20.941Z,102102.25
2022-12-18T08:07:55.461Z,102097.50
2022-12-18T08:10:36.890Z,102104.38
2022-12-18T08:13:17.531Z,102105.19
2022-12-18T08:15:48.877Z,102117.28
2022-12-18T08:18:33.292Z,102110.31
2022-12-18T08:21:30.288Z,102118.31
2022-12-18T08:24:15.248Z,102119.94
2022-12-18T08:27:06.714Z,102132.53
2022-12-18T08:33:19.856Z,102112.03
2022-12-18T08:38:53.419Z,102114.84
2022-12-18T08:41:29.908Z,102121.41
2022-12-18T08:44:19.057Z,102124.88
2022-12-18T08:46:52.085Z,102120.81
2022-12-18T08:49:20.947Z,102124.66
2022-12-18T08:51:55.165Z,102131.84
2022-12-18T08:54:24.430Z,102119.41
2022-12-18T08:56:53.605Z,102126.38
2022-12-18T08:59:24.990Z,102127.91
2022-12-18T09:01:57.779Z,102123.78
2022-12-18T09:04:26.125Z,102128.94
2022-12-18T09:06:56.093Z,102133.22
2022-12-18T09:09:28.108Z,102132.59
2022-12-18T09:11:57.016Z,102138.88
2022-12-18T09:14:26.853Z,102126.41
2022-12-18T09:16:58.125Z,102126.63
2022-12-18T09:19:27.828Z,102120.97
2022-12-18T09:21:56.000Z,102124.72
2022-12-18T09:24:28.583Z,102126.81
2022-12-18T09:26:58.037Z,102119.59
2022-12-18T09:29:28.606Z,102129.63
2022-12-18T09:32:06.107Z,102137.06
2022-12-18T09:34:40.178Z,102134.03
2022-12-18T09:37:12.108Z,102144.50
2022-12-18T09:39:43.749Z,102146.00
2022-12-18T09:42:23.577Z,102150.69
2022-12-18T09:44:56.018Z,102154.22
2022-12-18T09:47:39.164Z,102173.28
2022-12-18T09:50:41.777Z,102159.44
2022-12-18T09:53:18.649Z,102159.53
2022-12-18T09:55:49.925Z,102157.06
2022-12-18T09:58:46.840Z,102159.97
2022-12-18T10:01:25.108Z,102162.44
2022-12-18T10:03:56.364Z,102175.09
2022-12-18T10:06:40.601Z,102181.50
2022-12-18T10:09:21.602Z,102178.81
2022-12-18T10:12:49.087Z,102180.81
2022-12-18T10:15:34.941Z,102180.63
2022-12-18T10:18:47.189Z,102179.13
2022-12-18T10:21:25.107Z,102196.06
2022-12-18T10:24:30.470Z,102192.59
2022-12-18T10:27:17.955Z,102188.88
2022-12-18T10:29:48.075Z,102209.00
2022-12-18T10:32:30.657Z,102205.41
2022-12-18T10:35:09.248Z,102201.50
2022-12-18T10:38:10.799Z,102198.28
2022-12-18T14:13:03.233Z,102419.06
2022-12-18T15:29:29.994Z,102527.06
2022-12-18T15:48:41.854Z,102546.81
2022-12-18T15:51:28.634Z,102556.16
2022-12-18T15:57:18.561Z,102566.16
2022-12-18T16:00:00.463Z,102580.88
2022-12-18T16:02:33.582Z,102578.00
2022-12-18T16:05:05.970Z,102587.19
2022-12-18T16:07:36.687Z,102588.47
2022-12-18T16:22:07.874Z,102620.50
2022-12-18T16:33:49.174Z,102631.66
2022-12-18T16:51:51.371Z,102653.31
2022-12-18T16:54:35.612Z,102659.34
2022-12-18T17:09:18.367Z,102669.81
2022-12-18T17:11:56.209Z,102681.88
2022-12-18T17:14:30.376Z,102685.75
2022-12-18T17:17:20.796Z,102680.53
2022-12-18T17:19:48.963Z,102676.78
2022-12-18T17:22:17.026Z,102687.72
2022-12-18T17:24:50.469Z,102699.63
2022-12-18T17:27:26.952Z,102697.97
2022-12-18T17:29:55.841Z,102695.53
2022-12-18T17:32:23.928Z,102705.84
2022-12-18T17:34:51.939Z,102710.06
2022-12-18T17:37:19.890Z,102719.63
2022-12-18T17:39:48.703Z,102727.97
2022-12-18T17:42:19.371Z,102719.72
2022-12-18T17:47:31.955Z,102735.25
2022-12-18T17:50:00.230Z,102749.22
2022-12-18T17:52:29.064Z,102747.41
2022-12-18T17:54:57.232Z,102754.72
2022-12-18T17:57:25.698Z,102750.72
2022-12-18T17:59:58.989Z,102751.06
2022-12-18T18:02:26.988Z,102765.03
2022-12-18T18:04:55.699Z,102756.75
2022-12-18T18:07:25.736Z,102761.53
2022-12-18T18:09:54.201Z,102747.78
2022-12-18T18:12:49.539Z,102764.97
2022-12-18T18:15:17.659Z,102756.88
2022-12-18T18:17:46.345Z,102760.69
2022-12-18T18:20:22.687Z,102753.47
2022-12-18T18:22:50.687Z,102764.44
2022-12-18T18:25:19.585Z,102767.31
2022-12-18T18:27:48.788Z,102768.19
2022-12-18T18:30:19.519Z,102759.28
2022-12-18T18:32:48.078Z,102765.97
2022-12-18T18:35:51.960Z,102777.41
2022-12-18T18:38:05.531Z,102771.88
2022-12-18T18:40:34.465Z,102784.06
2022-12-18T18:43:02.441Z,102787.78
2022-12-18T18:45:32.173Z,102788.22
2022-12-18T18:47:59.943Z,102791.75
2022-12-18T18:50:29.231Z,102794.88
2022-12-18T18:52:57.052Z,102797.31
2022-12-18T18:55:26.667Z,102794.31
2022-12-18T18:57:54.670Z,102799.16
2022-12-18T19:00:22.594Z,102795.00
2022-12-18T19:02:50.452Z,102799.94
2022-12-18T19:05:18.809Z,102813.75
2022-12-18T19:07:46.922Z,102808.94
2022-12-18T19:10:14.937Z,102822.63
2022-12-18T19:13:02.427Z,102828.13
2022-12-18T19:15:30.208Z,102822.78
2022-12-18T19:17:57.925Z,102818.47
2022-12-18T19:20:26.273Z,102829.06
2022-12-18T19:23:08.502Z,102836.19
2022-12-18T19:25:45.810Z,102834.13
2022-12-18T19:28:21.937Z,102833.75
2022-12-18T19:30:59.263Z,102840.47
2022-12-18T19:33:45.047Z,102834.44
2022-12-18T19:36:14.126Z,102834.38
2022-12-18T19:38:44.785Z,102852.25
2022-12-18T22:49:52.090Z,102992.19
2022-12-18T22:52:20.012Z,102991.75
2022-12-18T22:54:54.629Z,102995.09
2022-12-18T22:57:24.927Z,102993.50
2022-12-18T22:59:54.073Z,103002.28
2022-12-18T23:02:25.859Z,103000.41
2022-12-18T23:04:55.200Z,103001.03
2022-12-18T23:07:24.322Z,103000.41
2022-12-18T23:10:00.882Z,103013.06
2022-12-18T23:12:33.487Z,103002.09
2022-12-18T23:15:05.755Z,103001.34
2022-12-18T23:17:34.538Z,102998.88
2022-12-18T23:20:03.554Z,102996.91
2022-12-18T23:22:32.083Z,103012.06
2022-12-18T23:25:01.554Z,103006.59
2022-12-18T23:27:30.057Z,103016.22
2022-12-18T23:29:58.473Z,103022.63
2022-12-18T23:32:30.556Z,103021.50
2022-12-18T23:35:05.278Z,103035.41
2022-12-18T23:38:00.011Z,103031.59
2022-12-18T23:40:30.423Z,103044.50
2022-12-18T23:43:02.617Z,103051.59
2022-12-18T23:45:31.018Z,103062.91
2022-12-18T23:47:59.044Z,103072.72
2022-12-18T23:50:30.017Z,103061.47
2022-12-18T23:53:03.253Z,103067.00
2022-12-18T23:55:41.513Z,103055.66
2022-12-18T23:58:29.893Z,103061.41
